Time;durP1;ratioP1;P1;durP2;ratioP2;P2;SDS_P1;SDS_P2;PMS_P1;PMS_P2;Temp;Humidity;BMP_temperature;BMP_pressure;BME280_temperature;BME280_humidity;BME280_pressure;Samples;Min_cycle;Max_cycle;Signal;HPM_P1;HPM_P2
2023/05/20 00:00:33;;;;;;;12.27;10.80;;;;;20.40;101206.00;;;;2076502;28;20271;-49
2023/05/20 00:01:33;;;;;;;11.60;10.23;;;;;20.40;101205.00;;;;2077226;28;20701;-49
2023/05/20 00:02:34;;;;;;;13.63;11.43;;;;;20.40;101202.00;;;;2078056;28;20733;-53
2023/05/20 00:03:34;;;;;;;13.70;11.50;;;;;20.40;101192.00;;;;2075375;28;20679;-49
2023/05/20 00:04:35;;;;;;;13.77;11.13;;;;;20.40;101193.00;;;;2085261;28;20208;-49
2023/05/20 00:05:35;;;;;;;12.50;10.60;;;;;20.40;101195.00;;;;2078367;28;20219;-49
2023/05/20 00:06:35;;;;;;;11.53;10.33;;;;;20.40;101196.00;;;;2078216;28;20237;-49
2023/05/20 00:07:36;;;;;;;11.70;9.50;;;;;20.40;101213.00;;;;2069033;28;20232;-49
2023/05/20 00:08:36;;;;;;;10.73;9.63;;;;;20.40;101196.00;;;;2084289;28;20690;-49
2023/05/20 00:09:38;;;;;;;12.83;9.77;;;;;20.40;101203.00;;;;2077956;28;20216;-49
2023/05/20 00:10:38;;;;;;;11.57;9.55;;;;;20.40;101199.00;;;;2076004;28;20210;-49
2023/05/20 00:11:38;;;;;;;12.10;9.37;;;;;20.40;101200.00;;;;2077114;28;20222;-49
2023/05/20 00:12:39;;;;;;;12.07;10.00;;;;;20.40;101202.00;;;;2069000;28;20933;-50
2023/05/20 00:13:39;;;;;;;12.07;10.13;;;;;20.40;101198.00;;;;2085024;28;20697;-49
2023/05/20 00:14:40;;;;;;;10.27;8.73;;;;;20.40;101199.00;;;;2084101;28;20696;-49
2023/05/20 00:15:40;;;;;;;11.53;9.47;;;;;20.40;101200.00;;;;2078013;28;20288;-49
2023/05/20 00:16:40;;;;;;;10.13;9.00;;;;;20.40;101191.00;;;;2078033;28;20225;-49
2023/05/20 00:17:41;;;;;;;11.70;9.47;;;;;20.40;101195.00;;;;2067826;28;20236;-49
2023/05/20 00:18:41;;;;;;;10.23;8.97;;;;;20.30;101191.00;;;;2081007;28;20641;-49
2023/05/20 00:19:41;;;;;;;8.50;7.30;;;;;20.40;101202.00;;;;2082820;28;20398;-49
2023/05/20 00:20:42;;;;;;;11.03;8.80;;;;;20.40;101194.00;;;;2076441;28;20357;-49
2023/05/20 00:21:42;;;;;;;10.27;8.20;;;;;20.30;101193.00;;;;2077462;28;20221;-49
2023/05/20 00:22:42;;;;;;;9.37;8.17;;;;;20.30;101190.00;;;;2062977;28;20307;-49
2023/05/20 00:23:43;;;;;;;9.13;8.10;;;;;20.30;101197.00;;;;2080207;28;20221;-49
2023/05/20 00:24:43;;;;;;;10.23;8.60;;;;;20.30;101204.00;;;;2077742;28;20236;-49
2023/05/20 00:25:43;;;;;;;9.43;7.83;;;;;20.00;101200.00;;;;2077910;28;20304;-49
2023/05/20 00:26:44;;;;;;;10.37;8.00;;;;;20.30;101197.00;;;;2077748;28;20233;-49
2023/05/20 00:27:45;;;;;;;8.73;7.50;;;;;20.30;101200.00;;;;2075057;28;20225;-49
2023/05/20 00:28:45;;;;;;;9.05;7.60;;;;;20.30;101196.00;;;;2085277;28;20225;-49
2023/05/20 00:29:45;;;;;;;7.90;7.10;;;;;20.30;101209.00;;;;2087309;28;20659;-49
2023/05/20 00:30:46;;;;;;;7.93;7.13;;;;;20.30;101198.00;;;;2077976;28;20233;-49
2023/05/20 00:31:46;;;;;;;8.63;7.57;;;;;20.30;101196.00;;;;2076404;28;20231;-49
2023/05/20 00:32:47;;;;;;;8.03;7.23;;;;;20.30;101202.00;;;;2068893;28;20646;-50
2023/05/20 00:33:47;;;;;;;7.63;6.83;;;;;20.30;101198.00;;;;2086476;28;20213;-49
2023/05/20 00:34:57;;;;;;;8.13;7.13;;;;;20.30;101205.00;;;;2089570;28;20224;-49
2023/05/20 00:35:57;;;;;;;8.73;7.30;;;;;20.30;101193.00;;;;2077524;28;20539;-49
2023/05/20 00:36:58;;;;;;;7.63;6.80;;;;;20.30;101203.00;;;;2077443;28;20279;-49
2023/05/20 00:37:58;;;;;;;9.07;7.07;;;;;20.30;101210.00;;;;2069108;28;20339;-49
2023/05/20 00:38:59;;;;;;;8.93;6.60;;;;;20.30;101199.00;;;;2077552;28;20241;-49
2023/05/20 00:39:59;;;;;;;7.73;6.73;;;;;20.30;101208.00;;;;2077622;28;20209;-49
2023/05/20 00:40:59;;;;;;;7.37;6.17;;;;;20.30;101162.00;;;;2077488;28;20231;-49
2023/05/20 00:42:02;;;;;;;8.17;6.33;;;;;20.30;101205.00;;;;2077354;28;20385;-49
2023/05/20 00:43:02;;;;;;;7.05;5.80;;;;;20.30;101205.00;;;;2067173;28;20710;-49
2023/05/20 00:44:02;;;;;;;8.00;6.47;;;;;20.30;101206.00;;;;2081180;28;20228;-49
2023/05/20 00:45:03;;;;;;;7.00;6.07;;;;;20.30;101198.00;;;;2077444;28;20218;-49
2023/05/20 00:46:04;;;;;;;8.10;6.50;;;;;20.30;101203.00;;;;2076063;28;20249;-49
2023/05/20 00:47:04;;;;;;;6.80;5.73;;;;;20.30;101194.00;;;;2077753;28;20748;-49
2023/05/20 00:48:05;;;;;;;6.50;5.87;;;;;20.30;101194.00;;;;2068048;28;21577;-49
2023/05/20 00:49:05;;;;;;;8.30;5.90;;;;;20.30;101196.00;;;;2072994;28;20252;-49
2023/05/20 00:50:06;;;;;;;8.47;5.80;;;;;20.30;101196.00;;;;2073193;28;20278;-49
2023/05/20 00:51:06;;;;;;;6.37;5.70;;;;;20.30;101203.00;;;;2076116;28;20210;-49
2023/05/20 00:52:07;;;;;;;8.23;6.20;;;;;20.30;101199.00;;;;2085210;28;20448;-49
2023/05/20 00:53:07;;;;;;;6.90;5.37;;;;;20.30;101194.00;;;;2067399;28;20221;-49
2023/05/20 00:54:07;;;;;;;5.50;4.90;;;;;20.30;101197.00;;;;2069034;28;20284;-49
2023/05/20 00:55:08;;;;;;;6.03;5.43;;;;;20.30;101190.00;;;;2073415;28;20227;-49
2023/05/20 00:56:08;;;;;;;6.30;5.50;;;;;20.30;101193.00;;;;2077300;28;20201;-49
2023/05/20 00:57:08;;;;;;;6.97;5.73;;;;;20.30;101188.00;;;;2076784;28;20289;-49
2023/05/20 00:58:09;;;;;;;7.07;5.90;;;;;20.30;101190.00;;;;2053096;28;20255;-49
2023/05/20 00:59:09;;;;;;;6.27;5.20;;;;;20.30;101189.00;;;;2070731;28;20206;-49
2023/05/20 01:00:10;;;;;;;6.80;4.97;;;;;20.30;101189.00;;;;2075567;28;20715;-49
2023/05/20 01:01:10;;;;;;;5.77;5.17;;;;;20.30;101185.00;;;;2078010;28;20304;-49
2023/05/20 01:02:11;;;;;;;5.70;5.10;;;;;20.30;101190.00;;;;2076757;28;20213;-49
2023/05/20 01:03:11;;;;;;;6.40;5.10;;;;;20.20;101183.00;;;;2071286;28;20287;-49
2023/05/20 01:04:11;;;;;;;8.77;5.57;;;;;20.30;101187.00;;;;2080489;28;20233;-49
2023/05/20 01:05:12;;;;;;;5.83;4.83;;;;;20.30;101192.00;;;;2075673;28;20213;-49
2023/05/20 01:06:12;;;;;;;4.83;4.20;;;;;20.40;101189.00;;;;2077368;28;20201;-49
2023/05/20 01:07:16;;;;;;;7.10;5.70;;;;;20.40;101186.00;;;;2077542;28;20218;-49
2023/05/20 01:08:16;;;;;;;5.57;4.93;;;;;20.50;101178.00;;;;2068757;28;20241;-49
2023/05/20 01:09:16;;;;;;;7.80;5.60;;;;;20.60;101175.00;;;;2059042;28;20919;-49
2023/05/20 01:10:17;;;;;;;8.60;5.17;;;;;20.60;101174.00;;;;2067470;28;20652;-49
2023/05/20 01:11:25;;;;;;;6.20;4.60;;;;;20.60;101179.00;;;;2076072;28;20564;-49
2023/05/20 01:12:28;;;;;;;5.20;4.50;;;;;20.60;101164.00;;;;2073694;28;20237;-55
2023/05/20 01:13:31;;;;;;;7.53;4.85;;;;;20.60;101177.00;;;;2058948;28;20684;-49
2023/05/20 01:14:34;;;;;;;6.53;5.15;;;;;20.60;101183.00;;;;2067218;28;20226;-49
2023/05/20 01:15:34;;;;;;;5.93;4.85;;;;;20.60;101183.00;;;;2076334;28;20628;-49
2023/05/20 01:16:34;;;;;;;7.37;4.80;;;;;20.60;101172.00;;;;2068486;28;20226;-49
2023/05/20 01:17:45;;;;;;;6.40;5.57;;;;;20.70;101190.00;;;;2073910;28;20248;-52
2023/05/20 01:18:47;;;;;;;5.80;5.20;;;;;20.70;101173.00;;;;2088317;28;20240;-49
2023/05/20 01:19:47;;;;;;;7.72;4.35;;;;;20.70;101182.00;;;;2087592;28;20612;-49
2023/05/20 01:20:48;;;;;;;6.43;4.87;;;;;20.70;101183.00;;;;2069068;28;20400;-49
2023/05/20 01:21:49;;;;;;;5.53;4.75;;;;;20.60;101185.00;;;;2066294;28;20379;-49
2023/05/20 01:22:53;;;;;;;5.07;4.50;;;;;20.50;101178.00;;;;2074546;28;20212;-49
2023/05/20 01:23:53;;;;;;;6.53;4.18;;;;;20.50;101180.00;;;;2079734;28;20768;-49
2023/05/20 01:24:54;;;;;;;6.10;4.60;;;;;20.40;101179.00;;;;2071648;28;20281;-49
2023/05/20 01:25:54;;;;;;;8.90;4.10;;;;;20.50;101180.00;;;;2080509;28;20223;-49
2023/05/20 01:26:56;;;;;;;4.70;3.93;;;;;20.40;101181.00;;;;2079752;28;20312;-49
2023/05/20 01:27:57;;;;;;;10.60;4.18;;;;;20.40;101176.00;;;;2069591;28;20241;-49
2023/05/20 01:29:03;;;;;;;5.50;3.60;;;;;20.40;101182.00;;;;2076771;28;20245;-49
2023/05/20 01:30:03;;;;;;;5.25;4.13;;;;;20.40;101179.00;;;;2076633;28;20227;-49
2023/05/20 01:31:05;;;;;;;5.13;3.83;;;;;20.40;101185.00;;;;2079891;28;21074;-49
2023/05/20 01:32:08;;;;;;;5.13;3.65;;;;;20.40;101177.00;;;;2077543;28;20221;-49
2023/05/20 01:33:10;;;;;;;4.50;3.65;;;;;20.40;101187.00;;;;2048660;28;20234;-49
2023/05/20 01:34:10;;;;;;;5.30;4.00;;;;;20.40;101179.00;;;;2053759;28;20624;-49
2023/05/20 01:35:11;;;;;;;5.17;3.70;;;;;20.20;101177.00;;;;2057356;28;20215;-49
2023/05/20 01:36:11;;;;;;;4.63;3.50;;;;;20.40;101177.00;;;;2069918;28;20304;-49
2023/05/20 01:37:11;;;;;;;4.00;3.50;;;;;20.40;101178.00;;;;2076487;28;20213;-49
2023/05/20 01:38:11;;;;;;;5.57;3.93;;;;;20.40;101178.00;;;;2066002;28;20234;-49
2023/05/20 01:39:12;;;;;;;4.47;3.33;;;;;20.40;101175.00;;;;2076725;28;20237;-49
2023/05/20 01:40:14;;;;;;;4.30;3.47;;;;;20.40;101172.00;;;;2068043;28;20802;-49
2023/05/20 01:41:14;;;;;;;4.53;3.80;;;;;20.30;101165.00;;;;2058395;28;20488;-49
2023/05/20 01:42:14;;;;;;;6.37;3.60;;;;;20.30;101178.00;;;;2055410;28;20218;-49
2023/05/20 01:43:16;;;;;;;3.43;3.00;;;;;20.40;101172.00;;;;2058846;28;20265;-49
2023/05/20 01:44:16;;;;;;;4.88;4.13;;;;;20.30;101171.00;;;;2075697;28;20236;-49
2023/05/20 01:45:16;;;;;;;5.10;3.57;;;;;20.40;101175.00;;;;2075937;28;20686;-49
2023/05/20 01:46:17;;;;;;;3.70;3.07;;;;;20.40;101171.00;;;;2079416;28;20575;-49
2023/05/20 01:47:17;;;;;;;4.57;3.70;;;;;20.30;101170.00;;;;2076142;28;20589;-49
2023/05/20 01:48:17;;;;;;;4.13;3.57;;;;;20.30;101170.00;;;;2065832;28;20609;-49
2023/05/20 01:49:18;;;;;;;4.30;3.87;;;;;20.30;101171.00;;;;2079655;28;20230;-49
2023/05/20 01:50:18;;;;;;;4.37;3.07;;;;;20.30;101166.00;;;;2073430;28;20228;-49
2023/05/20 01:51:18;;;;;;;4.53;3.10;;;;;20.30;101171.00;;;;2078271;28;20221;-49
2023/05/20 01:52:22;;;;;;;4.60;3.37;;;;;20.30;101171.00;;;;2078986;28;20749;-49
2023/05/20 01:53:22;;;;;;;5.60;4.13;;;;;20.30;101176.00;;;;2080345;28;20216;-49
2023/05/20 01:54:22;;;;;;;5.07;4.17;;;;;20.30;101171.00;;;;2083316;28;20216;-49
2023/05/20 01:55:23;;;;;;;6.40;4.60;;;;;20.30;101172.00;;;;2077417;28;20272;-49
2023/05/20 01:56:24;;;;;;;6.63;5.20;;;;;20.30;101174.00;;;;2076444;28;20297;-49
2023/05/20 01:57:24;;;;;;;8.63;7.27;;;;;20.30;101170.00;;;;2079218;28;20668;-49
2023/05/20 01:58:25;;;;;;;8.37;6.60;;;;;20.30;101164.00;;;;2074393;28;20868;-49
2023/05/20 01:59:25;;;;;;;7.57;6.50;;;;;20.30;101168.00;;;;2083579;28;20640;-49
2023/05/20 02:00:25;;;;;;;9.80;8.27;;;;;20.30;101174.00;;;;2077499;28;20237;-49
2023/05/20 02:01:26;;;;;;;10.60;8.57;;;;;20.30;101164.00;;;;2076598;28;20267;-49
2023/05/20 02:02:26;;;;;;;10.90;8.80;;;;;20.30;101163.00;;;;2076354;28;20487;-52
2023/05/20 02:03:26;;;;;;;12.77;11.37;;;;;20.30;101171.00;;;;2069486;28;20221;-49
2023/05/20 02:04:27;;;;;;;14.30;12.23;;;;;20.30;101166.00;;;;2078233;28;20295;-49
2023/05/20 02:05:27;;;;;;;17.80;13.70;;;;;20.30;101127.00;;;;2077342;28;21004;-49
2023/05/20 02:06:27;;;;;;;17.80;13.90;;;;;20.30;101166.00;;;;2076799;28;20662;-49
2023/05/20 02:07:28;;;;;;;18.20;14.00;;;;;20.30;101164.00;;;;2077438;28;20603;-49
2023/05/20 02:08:28;;;;;;;16.87;14.73;;;;;20.30;101175.00;;;;2073296;28;20213;-49
2023/05/20 02:09:28;;;;;;;20.00;15.40;;;;;20.30;101164.00;;;;2078042;28;20213;-49
2023/05/20 02:10:29;;;;;;;20.10;16.20;;;;;20.30;101164.00;;;;2076983;28;20234;-49
2023/05/20 02:11:29;;;;;;;22.47;17.73;;;;;20.30;101164.00;;;;2075923;28;20222;-51
2023/05/20 02:12:29;;;;;;;21.57;17.37;;;;;20.30;101166.00;;;;2076838;28;20240;-50
2023/05/20 02:13:30;;;;;;;23.63;18.00;;;;;20.30;101166.00;;;;2073706;28;20208;-51
2023/05/20 02:14:30;;;;;;;21.70;18.20;;;;;20.30;101170.00;;;;2089845;28;20241;-49
2023/05/20 02:15:30;;;;;;;22.57;17.87;;;;;20.30;101174.00;;;;2078132;28;20224;-49
2023/05/20 02:16:31;;;;;;;23.83;19.90;;;;;20.30;101174.00;;;;2074551;28;20775;-49
2023/05/20 02:17:31;;;;;;;21.97;18.10;;;;;20.30;101173.00;;;;2072848;28;20215;-50
2023/05/20 02:18:34;;;;;;;24.13;18.90;;;;;20.30;101167.00;;;;2070312;28;20209;-49
2023/05/20 02:19:34;;;;;;;22.40;18.98;;;;;20.30;101173.00;;;;2075602;28;20216;-49
2023/05/20 02:20:35;;;;;;;26.47;19.60;;;;;20.30;101176.00;;;;2075025;28;20745;-49
2023/05/20 02:21:35;;;;;;;24.77;19.50;;;;;20.30;101164.00;;;;2076933;28;20255;-49
2023/05/20 02:22:36;;;;;;;25.03;20.77;;;;;20.30;101173.00;;;;2064360;28;20449;-49
2023/05/20 02:23:36;;;;;;;26.77;19.93;;;;;20.30;101166.00;;;;2074864;28;20216;-49
2023/05/20 02:24:36;;;;;;;27.40;21.70;;;;;20.30;101172.00;;;;2075913;28;20214;-49
2023/05/20 02:25:37;;;;;;;28.27;22.23;;;;;20.30;101172.00;;;;2075448;28;20214;-49
2023/05/20 02:26:37;;;;;;;28.93;23.30;;;;;20.30;101169.00;;;;2075355;28;20292;-49
2023/05/20 02:27:39;;;;;;;31.67;23.60;;;;;20.30;101170.00;;;;2064418;28;20234;-50
2023/05/20 02:28:45;;;;;;;29.88;23.60;;;;;20.30;101175.00;;;;2073219;28;20214;-49
2023/05/20 02:29:45;;;;;;;36.08;26.58;;;;;20.30;101126.00;;;;2075678;28;20210;-49
2023/05/20 02:30:45;;;;;;;34.77;26.23;;;;;20.30;101170.00;;;;2076607;28;20259;-49
2023/05/20 02:31:46;;;;;;;31.60;25.40;;;;;20.30;101179.00;;;;2072877;28;20210;-49
2023/05/20 02:32:47;;;;;;;38.13;27.70;;;;;20.30;101174.00;;;;2066146;28;20312;-49
2023/05/20 02:33:47;;;;;;;37.87;27.53;;;;;20.30;101171.00;;;;2082350;28;20466;-49
2023/05/20 02:34:48;;;;;;;39.57;28.10;;;;;20.10;101164.00;;;;2075971;28;20327;-49
2023/05/20 02:35:48;;;;;;;35.87;27.87;;;;;20.30;101161.00;;;;2078236;28;20209;-49
2023/05/20 02:36:48;;;;;;;36.10;26.57;;;;;20.20;101176.00;;;;2076867;28;25610;-49
2023/05/20 02:37:49;;;;;;;39.17;28.30;;;;;20.30;101167.00;;;;2067106;28;20217;-50
2023/05/20 02:38:50;;;;;;;38.47;28.43;;;;;20.30;101166.00;;;;2076165;28;20435;-50
2023/05/20 02:39:50;;;;;;;35.70;27.27;;;;;20.30;101169.00;;;;2074243;28;20213;-49
2023/05/20 02:40:50;;;;;;;37.83;29.03;;;;;20.30;101170.00;;;;2076526;28;20463;-49
2023/05/20 02:41:50;;;;;;;39.43;28.67;;;;;20.30;101165.00;;;;2076312;28;20221;-49
2023/05/20 02:42:51;;;;;;;35.90;28.17;;;;;20.30;101166.00;;;;2066046;28;20241;-49
2023/05/20 02:43:51;;;;;;;34.90;26.80;;;;;20.30;101167.00;;;;2078446;28;20219;-49
2023/05/20 02:44:55;;;;;;;35.53;25.67;;;;;20.30;101169.00;;;;2077702;28;20858;-49
2023/05/20 02:45:55;;;;;;;35.25;25.65;;;;;20.30;101164.00;;;;2076602;28;20213;-49
2023/05/20 02:46:55;;;;;;;31.17;24.07;;;;;20.30;101164.00;;;;2077210;28;20232;-49
2023/05/20 02:47:56;;;;;;;30.80;23.50;;;;;20.30;101163.00;;;;2069130;28;20233;-49
2023/05/20 02:48:56;;;;;;;30.57;24.40;;;;;20.30;101160.00;;;;2084384;28;20217;-49
2023/05/20 02:49:57;;;;;;;32.30;24.90;;;;;20.20;101160.00;;;;2078250;28;20221;-49
2023/05/20 02:51:00;;;;;;;29.50;20.20;;;;;20.30;101165.00;;;;2076243;28;20302;-49
2023/05/20 02:52:00;;;;;;;28.48;21.45;;;;;20.20;101156.00;;;;2078687;28;20233;-51
2023/05/20 02:53:01;;;;;;;27.70;22.40;;;;;20.30;101162.00;;;;2069624;28;20251;-50
2023/05/20 02:54:01;;;;;;;27.33;20.83;;;;;20.30;101166.00;;;;2084377;28;20208;-49
2023/05/20 02:55:02;;;;;;;27.33;20.97;;;;;20.30;101159.00;;;;2080770;28;20216;-49
2023/05/20 02:56:03;;;;;;;27.93;20.87;;;;;20.20;101164.00;;;;2078504;28;20220;-50
2023/05/20 02:57:03;;;;;;;27.38;20.63;;;;;20.20;101158.00;;;;2077754;28;20221;-49
2023/05/20 02:58:03;;;;;;;24.40;19.17;;;;;20.20;101169.00;;;;2064739;28;20299;-49
2023/05/20 02:59:05;;;;;;;23.20;18.20;;;;;20.30;101166.00;;;;2079383;28;20213;-49
2023/05/20 03:00:09;;;;;;;23.52;18.40;;;;;20.20;101164.00;;;;2077182;28;20224;-49
2023/05/20 03:01:10;;;;;;;23.60;17.88;;;;;20.30;101160.00;;;;2077529;28;20758;-49
2023/05/20 03:02:10;;;;;;;23.63;18.77;;;;;20.20;101158.00;;;;2078789;28;20232;-49
2023/05/20 03:03:12;;;;;;;24.77;18.97;;;;;20.20;101154.00;;;;2072790;28;20307;-49
2023/05/20 03:04:12;;;;;;;24.65;17.33;;;;;20.20;101159.00;;;;2089776;28;20218;-49
2023/05/20 03:05:13;;;;;;;21.53;17.00;;;;;20.20;101155.00;;;;2084090;28;20217;-49
2023/05/20 03:06:13;;;;;;;20.77;16.50;;;;;20.20;101156.00;;;;2078461;28;20284;-49
2023/05/20 03:07:16;;;;;;;21.07;16.37;;;;;20.20;101162.00;;;;2078061;28;20576;-49
2023/05/20 03:08:19;;;;;;;20.63;16.20;;;;;20.20;101164.00;;;;2067847;28;20773;-49
2023/05/20 03:09:19;;;;;;;19.38;15.40;;;;;20.20;101158.00;;;;2083932;28;20294;-49
2023/05/20 03:10:19;;;;;;;18.73;15.43;;;;;20.20;101164.00;;;;2080257;28;20622;-49
2023/05/20 03:11:21;;;;;;;17.57;14.03;;;;;20.20;101159.00;;;;2077956;28;20228;-49
2023/05/20 03:12:21;;;;;;;21.20;15.05;;;;;20.20;101165.00;;;;2078159;28;20681;-49
2023/05/20 03:13:21;;;;;;;19.30;15.03;;;;;20.20;101162.00;;;;2067569;28;20220;-49
2023/05/20 03:14:22;;;;;;;16.17;13.60;;;;;20.20;101164.00;;;;2083052;28;20224;-49
2023/05/20 03:15:22;;;;;;;19.33;14.57;;;;;20.20;101161.00;;;;2078934;28;20567;-49
2023/05/20 03:16:24;;;;;;;19.40;13.73;;;;;20.20;101165.00;;;;2078268;28;20634;-49
2023/05/20 03:17:24;;;;;;;17.45;12.68;;;;;20.20;101164.00;;;;2078016;28;20213;-49
2023/05/20 03:18:24;;;;;;;18.83;13.27;;;;;20.20;101162.00;;;;2076156;28;20680;-49
2023/05/20 03:19:25;;;;;;;16.87;13.23;;;;;20.20;101155.00;;;;2085407;28;20208;-49
2023/05/20 03:20:25;;;;;;;16.00;12.50;;;;;20.20;101166.00;;;;2077208;28;20299;-49
2023/05/20 03:21:26;;;;;;;16.67;12.80;;;;;20.20;101163.00;;;;2076121;28;20456;-49
2023/05/20 03:22:27;;;;;;;16.20;12.00;;;;;20.20;101152.00;;;;2077986;28;20681;-49
2023/05/20 03:23:27;;;;;;;16.17;13.40;;;;;20.20;101156.00;;;;2073577;28;20274;-49
2023/05/20 03:24:27;;;;;;;13.93;11.33;;;;;20.20;101160.00;;;;2085257;28;20734;-49
2023/05/20 03:25:28;;;;;;;13.33;11.07;;;;;20.20;101165.00;;;;2082208;28;20953;-49
2023/05/20 03:26:29;;;;;;;13.43;10.53;;;;;20.20;101163.00;;;;2079464;28;20274;-49
2023/05/20 03:27:29;;;;;;;14.80;10.90;;;;;20.20;101161.00;;;;2078100;28;20234;-49
2023/05/20 03:28:30;;;;;;;11.43;10.20;;;;;20.20;101159.00;;;;2075368;28;20653;-49
2023/05/20 03:29:30;;;;;;;12.50;10.60;;;;;20.20;101159.00;;;;2085013;28;20224;-52
2023/05/20 03:30:31;;;;;;;14.80;11.83;;;;;20.20;101154.00;;;;2082024;28;20587;-51
2023/05/20 03:31:31;;;;;;;14.10;10.40;;;;;20.20;101159.00;;;;2077951;28;20295;-49
2023/05/20 03:32:31;;;;;;;12.27;9.77;;;;;20.20;101148.00;;;;2078736;28;20205;-50
2023/05/20 03:33:33;;;;;;;13.40;10.27;;;;;20.20;101164.00;;;;2065305;28;20224;-50
2023/05/20 03:34:34;;;;;;;13.43;10.88;;;;;20.20;101152.00;;;;2082534;28;20263;-49
2023/05/20 03:35:34;;;;;;;13.10;9.93;;;;;20.20;101157.00;;;;2077109;28;20213;-49
2023/05/20 03:36:34;;;;;;;12.47;9.43;;;;;20.20;101156.00;;;;2077198;28;20214;-50
2023/05/20 03:37:35;;;;;;;12.23;9.40;;;;;20.20;101155.00;;;;2077257;28;20221;-49
2023/05/20 03:38:35;;;;;;;12.47;10.03;;;;;20.20;101149.00;;;;2067582;28;20682;-50
2023/05/20 03:39:36;;;;;;;13.17;9.13;;;;;20.20;101146.00;;;;2076171;28;21188;-50
2023/05/20 03:40:36;;;;;;;11.33;9.43;;;;;20.20;101143.00;;;;2077995;28;20268;-51
2023/05/20 03:41:37;;;;;;;11.17;9.13;;;;;20.20;101152.00;;;;2076686;28;20214;-49
2023/05/20 03:42:37;;;;;;;10.97;8.53;;;;;20.20;101146.00;;;;2072868;28;20244;-49
2023/05/20 03:43:38;;;;;;;9.80;8.27;;;;;20.20;101145.00;;;;2080282;28;20693;-49
2023/05/20 03:44:38;;;;;;;11.83;9.40;;;;;20.20;101148.00;;;;2085636;28;20208;-49
2023/05/20 03:45:38;;;;;;;10.93;8.63;;;;;20.20;101147.00;;;;2077874;28;20264;-49
2023/05/20 03:46:39;;;;;;;10.67;8.53;;;;;20.20;101142.00;;;;2077257;28;20217;-49
2023/05/20 03:47:39;;;;;;;10.90;9.07;;;;;20.20;101139.00;;;;2074264;28;20232;-49
2023/05/20 03:48:40;;;;;;;9.13;7.40;;;;;20.20;101133.00;;;;2085173;28;20241;-49
2023/05/20 03:49:40;;;;;;;11.60;9.70;;;;;20.20;101137.00;;;;2083296;28;20711;-49
2023/05/20 03:50:41;;;;;;;10.37;8.30;;;;;20.20;101137.00;;;;2077883;28;20226;-49
2023/05/20 03:51:41;;;;;;;11.40;8.63;;;;;20.20;101135.00;;;;2079333;28;20217;-49
2023/05/20 03:52:42;;;;;;;13.70;9.10;;;;;20.20;101140.00;;;;2068487;28;20579;-49
2023/05/20 03:53:43;;;;;;;10.17;7.90;;;;;20.20;101132.00;;;;2084699;28;20607;-49
2023/05/20 03:54:43;;;;;;;9.70;7.00;;;;;20.20;101132.00;;;;2077206;28;20267;-49
2023/05/20 03:55:43;;;;;;;8.10;6.97;;;;;20.20;101131.00;;;;2075067;28;20210;-49
2023/05/20 03:56:45;;;;;;;11.10;7.57;;;;;20.20;101136.00;;;;2081665;28;20372;-49
2023/05/20 03:57:46;;;;;;;11.20;7.97;;;;;20.20;101136.00;;;;2068934;28;20205;-49
2023/05/20 03:58:46;;;;;;;9.40;7.70;;;;;20.20;101133.00;;;;2085253;28;20880;-49
2023/05/20 03:59:46;;;;;;;10.10;7.33;;;;;20.20;101134.00;;;;2083257;28;20236;-49
2023/05/20 04:00:47;;;;;;;9.23;7.10;;;;;20.20;101132.00;;;;2077304;28;20221;-49
2023/05/20 04:01:48;;;;;;;8.48;7.25;;;;;20.20;101132.00;;;;2077162;28;20217;-49
2023/05/20 04:02:48;;;;;;;9.67;6.80;;;;;20.20;101138.00;;;;2069283;28;20340;-50
2023/05/20 04:03:48;;;;;;;8.03;6.77;;;;;20.20;101141.00;;;;2080738;28;20209;-49
2023/05/20 04:04:51;;;;;;;7.40;5.90;;;;;20.10;101085.00;;;;2083768;28;20205;-49
2023/05/20 04:05:52;;;;;;;9.07;6.55;;;;;20.20;101126.00;;;;2077728;28;20681;-49
2023/05/20 04:06:53;;;;;;;9.03;6.70;;;;;20.20;101133.00;;;;2083244;28;20221;-49
2023/05/20 04:07:53;;;;;;;10.23;6.97;;;;;20.20;101128.00;;;;2065440;28;20238;-49
2023/05/20 04:08:53;;;;;;;10.10;6.40;;;;;20.20;101130.00;;;;2072653;28;20221;-49
2023/05/20 04:09:54;;;;;;;7.27;6.00;;;;;20.20;101136.00;;;;2083019;28;20216;-49
2023/05/20 04:10:55;;;;;;;9.40;6.90;;;;;20.20;101128.00;;;;2078384;28;20709;-50
2023/05/20 04:11:56;;;;;;;8.20;6.50;;;;;20.20;101132.00;;;;2076620;28;20308;-49
2023/05/20 04:12:56;;;;;;;8.73;7.10;;;;;20.20;101128.00;;;;2070057;28;20217;-49
2023/05/20 04:13:59;;;;;;;7.20;6.13;;;;;20.20;101134.00;;;;2088297;28;20221;-49
2023/05/20 04:15:00;;;;;;;7.57;6.53;;;;;20.20;101136.00;;;;2082537;28;20232;-49
2023/05/20 04:16:00;;;;;;;6.53;5.80;;;;;20.20;101133.00;;;;2077755;28;20210;-49
2023/05/20 04:17:05;;;;;;;7.33;6.20;;;;;20.20;101133.00;;;;2077706;28;20237;-50
2023/05/20 04:18:05;;;;;;;6.93;5.95;;;;;20.20;101136.00;;;;2071160;28;20212;-50
2023/05/20 04:19:06;;;;;;;6.60;5.90;;;;;20.20;101137.00;;;;2085173;28;20221;-49
2023/05/20 04:20:07;;;;;;;7.50;5.57;;;;;20.20;101147.00;;;;2080206;28;20229;-49
2023/05/20 04:21:07;;;;;;;6.82;5.70;;;;;20.20;101144.00;;;;2077113;28;20222;-49
2023/05/20 04:22:08;;;;;;;6.83;5.63;;;;;20.20;101141.00;;;;2077291;28;20355;-49
2023/05/20 04:23:08;;;;;;;7.70;5.27;;;;;20.20;101141.00;;;;2073477;28;20229;-49
2023/05/20 04:24:08;;;;;;;11.00;6.83;;;;;20.20;101133.00;;;;2085328;28;20298;-49
2023/05/20 04:25:09;;;;;;;6.03;5.43;;;;;20.20;101134.00;;;;2081161;28;20209;-49
2023/05/20 04:26:09;;;;;;;6.83;5.63;;;;;20.20;101132.00;;;;2077200;28;20229;-49
2023/05/20 04:27:09;;;;;;;6.90;5.43;;;;;20.20;101134.00;;;;2077611;28;20228;-49
2023/05/20 04:28:12;;;;;;;6.60;5.23;;;;;20.20;101083.00;;;;2073468;28;21322;-49
2023/05/20 04:29:14;;;;;;;7.35;5.82;;;;;20.20;101134.00;;;;2084892;28;20216;-49
2023/05/20 04:30:20;;;;;;;6.90;5.25;;;;;20.20;101134.00;;;;2079510;28;20222;-49
2023/05/20 04:31:25;;;;;;;5.95;5.00;;;;;20.20;101126.00;;;;2076943;28;20214;-49
2023/05/20 04:32:25;;;;;;;5.65;4.97;;;;;20.20;101135.00;;;;2077632;28;20214;-49
2023/05/20 04:33:26;;;;;;;5.97;5.00;;;;;20.20;101129.00;;;;2073154;28;20213;-49
2023/05/20 04:34:33;;;;;;;6.83;5.37;;;;;20.20;101129.00;;;;2084519;28;20212;-49
2023/05/20 04:35:34;;;;;;;7.25;5.25;;;;;20.20;101138.00;;;;2076727;28;20584;-50
2023/05/20 04:36:37;;;;;;;7.63;5.45;;;;;20.20;101136.00;;;;2076883;28;20217;-50
2023/05/20 04:37:37;;;;;;;8.52;5.70;;;;;20.20;101138.00;;;;2068893;28;20210;-50
2023/05/20 04:38:38;;;;;;;5.83;4.90;;;;;20.20;101145.00;;;;2076857;28;20328;-49
2023/05/20 04:39:39;;;;;;;6.60;4.60;;;;;20.20;101137.00;;;;2074966;28;20208;-49
2023/05/20 04:40:39;;;;;;;6.60;4.60;;;;;20.20;101139.00;;;;2077652;28;20268;-49
2023/05/20 04:41:39;;;;;;;6.23;4.70;;;;;20.20;101140.00;;;;2079863;28;20241;-50
2023/05/20 04:42:40;;;;;;;6.50;4.90;;;;;20.20;101136.00;;;;2067371;28;20213;-49
2023/05/20 04:43:40;;;;;;;5.67;4.80;;;;;20.20;101141.00;;;;2080003;28;20221;-49
2023/05/20 04:44:40;;;;;;;5.30;4.80;;;;;20.20;101138.00;;;;2082966;28;20274;-49
2023/05/20 04:45:41;;;;;;;7.37;4.60;;;;;20.20;101134.00;;;;2077782;28;20217;-49
2023/05/20 04:46:41;;;;;;;5.73;4.40;;;;;20.10;101139.00;;;;2079150;28;20217;-49
2023/05/20 04:47:43;;;;;;;6.67;4.87;;;;;20.20;101149.00;;;;2067402;28;20213;-49
2023/05/20 04:48:43;;;;;;;5.65;4.68;;;;;20.20;101146.00;;;;2083981;28;20247;-49
2023/05/20 04:49:44;;;;;;;4.93;4.33;;;;;20.20;101145.00;;;;2083260;28;20212;-49
2023/05/20 04:50:44;;;;;;;5.78;4.72;;;;;20.20;101139.00;;;;2077118;28;20210;-49
2023/05/20 04:51:46;;;;;;;6.50;5.37;;;;;20.20;101148.00;;;;2080686;28;20292;-49
2023/05/20 04:52:46;;;;;;;5.20;4.40;;;;;20.20;101149.00;;;;2068604;28;20584;-49
2023/05/20 04:53:46;;;;;;;4.57;4.03;;;;;20.20;101148.00;;;;2089767;28;20243;-49
2023/05/20 04:54:47;;;;;;;5.27;4.17;;;;;20.20;101150.00;;;;2083538;28;20216;-49
2023/05/20 04:55:48;;;;;;;4.93;4.43;;;;;20.20;101149.00;;;;2077107;28;20218;-49
2023/05/20 04:56:49;;;;;;;4.90;4.15;;;;;20.20;101145.00;;;;2076437;28;20586;-49
2023/05/20 04:57:50;;;;;;;4.47;4.03;;;;;20.20;101139.00;;;;2065335;28;20284;-49